Time;durP1;ratioP1;P1;durP2;ratioP2;P2;SDS_P1;SDS_P2;PMS_P1;PMS_P2;Temp;Humidity;BMP_temperature;BMP_pressure;BME280_temperature;BME280_humidity;BME280_pressure;Samples;Min_cycle;Max_cycle;Signal;HPM_P1;HPM_P2
2021/04/23 00:00:21;;;;;;;8.60;7.80;;;4.60;99.90;;;;;;5068197;28;20440;-77
2021/04/23 00:02:47;;;;;;;8.90;7.87;;;4.50;99.90;;;;;;5061420;28;20474;-77
2021/04/23 00:05:15;;;;;;;8.30;7.60;;;4.50;99.90;;;;;;5068530;28;20440;-77
2021/04/23 00:07:41;;;;;;;12.03;7.70;;;4.40;99.90;;;;;;5066781;28;20456;-77
2021/04/23 00:10:11;;;;;;;8.07;7.27;;;4.40;99.90;;;;;;5067787;28;20435;-77
2021/04/23 00:12:38;;;;;;;7.60;6.90;;;4.40;99.90;;;;;;5066156;28;20453;-77
2021/04/23 00:15:08;;;;;;;8.20;7.40;;;4.30;99.90;;;;;;5060493;28;20430;-77
2021/04/23 00:17:36;;;;;;;8.40;7.40;;;4.30;99.90;;;;;;5062924;28;21023;-77
2021/04/23 00:20:07;;;;;;;10.77;7.67;;;4.30;99.90;;;;;;5059874;28;20457;-77
2021/04/23 00:22:33;;;;;;;8.30;7.50;;;4.30;99.90;;;;;;5086033;28;20481;-77
2021/04/23 00:24:59;;;;;;;10.43;8.40;;;4.20;99.90;;;;;;5063302;28;20444;-77
2021/04/23 00:27:26;;;;;;;10.17;8.53;;;4.20;99.90;;;;;;5064083;28;20869;-77
2021/04/23 00:29:52;;;;;;;9.27;8.43;;;4.20;99.90;;;;;;5081703;28;20452;-77
2021/04/23 00:35:05;;;;;;;8.47;7.77;;;4.30;99.90;;;;;;5053545;28;20833;-77
2021/04/23 00:37:31;;;;;;;10.03;7.90;;;4.30;99.90;;;;;;5066000;28;20853;-77
2021/04/23 00:39:58;;;;;;;8.20;7.40;;;4.20;99.90;;;;;;5066852;28;20429;-77
2021/04/23 00:42:24;;;;;;;7.97;7.17;;;4.20;99.90;;;;;;5068747;28;20851;-77
2021/04/23 00:44:50;;;;;;;8.97;7.60;;;4.30;99.90;;;;;;5065686;28;20430;-77
2021/04/23 00:47:17;;;;;;;7.80;7.10;;;4.30;99.90;;;;;;5067361;28;20472;-77
2021/04/23 00:49:43;;;;;;;7.93;7.13;;;4.30;99.90;;;;;;5065527;28;20491;-77
2021/04/23 00:52:11;;;;;;;7.70;7.10;;;4.30;99.90;;;;;;5066033;28;20449;-77
2021/04/23 00:54:37;;;;;;;8.70;7.90;;;4.30;99.90;;;;;;5066062;28;20430;-77
2021/04/23 00:57:04;;;;;;;8.53;7.83;;;4.20;99.90;;;;;;5067123;28;20454;-77
2021/04/23 00:59:30;;;;;;;8.60;7.70;;;4.20;99.90;;;;;;5067760;28;20459;-77
2021/04/23 01:02:01;;;;;;;8.13;6.93;;;4.20;99.90;;;;;;5065515;28;20557;-77
2021/04/23 01:04:30;;;;;;;7.90;7.10;;;4.20;99.90;;;;;;5065232;28;20448;-77
2021/04/23 01:06:57;;;;;;;10.27;7.93;;;4.10;99.90;;;;;;5066168;28;21048;-77
2021/04/23 01:09:28;;;;;;;8.87;7.60;;;4.00;99.90;;;;;;5065114;28;20464;-77
2021/04/23 01:11:57;;;;;;;9.33;8.43;;;3.90;99.90;;;;;;5063983;28;20480;-77
2021/04/23 01:14:24;;;;;;;11.67;8.20;;;3.90;99.90;;;;;;5068219;28;20462;-77
2021/04/23 01:16:51;;;;;;;9.53;8.53;;;3.80;99.90;;;;;;5064800;28;20943;-77
2021/04/23 01:19:22;;;;;;;11.17;8.70;;;3.70;99.90;;;;;;5063265;28;20441;-77
2021/04/23 01:21:50;;;;;;;9.50;8.60;;;3.70;99.90;;;;;;5069481;28;20472;-77
2021/04/23 01:24:18;;;;;;;9.50;8.50;;;3.60;99.90;;;;;;5069053;28;20816;-77
2021/04/23 01:26:47;;;;;;;9.47;8.53;;;3.60;99.90;;;;;;5067492;28;20457;-77
2021/04/23 01:29:15;;;;;;;9.73;8.83;;;3.50;99.90;;;;;;5063023;28;20437;-77
2021/04/23 01:31:46;;;;;;;10.87;9.43;;;3.50;99.90;;;;;;5054181;28;20450;-77
2021/04/23 01:34:15;;;;;;;9.30;8.40;;;3.40;99.90;;;;;;5062702;28;20504;-77
2021/04/23 01:36:42;;;;;;;10.23;8.70;;;3.40;99.90;;;;;;5062133;28;20448;-77
2021/04/23 01:39:12;;;;;;;10.57;9.50;;;3.40;99.90;;;;;;5056314;28;20832;-77
2021/04/23 01:41:40;;;;;;;11.83;8.80;;;3.30;99.90;;;;;;5064183;28;20476;-77
2021/04/23 01:44:07;;;;;;;10.33;9.33;;;3.30;99.90;;;;;;5057876;28;20528;-77
2021/04/23 01:46:34;;;;;;;9.80;8.90;;;3.30;99.90;;;;;;5065870;28;20437;-77
2021/04/23 01:49:01;;;;;;;10.27;8.93;;;3.30;99.90;;;;;;5062277;28;20436;-77
2021/04/23 01:51:28;;;;;;;10.23;9.03;;;3.20;99.90;;;;;;5063235;28;20431;-77
2021/04/23 01:53:55;;;;;;;11.33;8.63;;;3.20;99.90;;;;;;5064880;28;20781;-77
2021/04/23 01:56:22;;;;;;;10.20;8.60;;;3.10;99.90;;;;;;5063114;28;20468;-77
2021/04/23 01:58:49;;;;;;;9.80;8.90;;;3.10;99.90;;;;;;5063022;28;21010;-77
2021/04/23 02:01:15;;;;;;;9.87;8.87;;;3.00;99.90;;;;;;5060105;28;20627;-77
2021/04/23 02:03:42;;;;;;;9.27;8.40;;;3.00;99.90;;;;;;5051242;28;20447;-77
2021/04/23 02:06:09;;;;;;;9.20;8.20;;;2.90;99.90;;;;;;5061116;28;20446;-77
2021/04/23 02:08:36;;;;;;;9.33;8.43;;;2.80;99.90;;;;;;5061122;28;20892;-77
2021/04/23 02:11:06;;;;;;;9.40;8.50;;;2.80;99.90;;;;;;5060968;28;20460;-77
2021/04/23 02:13:35;;;;;;;9.67;7.80;;;2.70;99.90;;;;;;5057616;28;20450;-77
2021/04/23 02:16:01;;;;;;;10.17;8.57;;;2.70;99.90;;;;;;5056641;28;20614;-77
2021/04/23 02:18:27;;;;;;;9.53;8.47;;;2.70;99.90;;;;;;5064241;28;20457;-77
2021/04/23 02:20:55;;;;;;;9.40;8.60;;;2.70;99.90;;;;;;5058982;28;20511;-77
2021/04/23 02:23:22;;;;;;;8.63;7.90;;;2.70;99.90;;;;;;5055769;28;20458;-77
2021/04/23 02:25:49;;;;;;;9.33;8.43;;;2.70;99.90;;;;;;5061774;28;20441;-77
2021/04/23 02:28:17;;;;;;;10.00;7.93;;;2.60;99.90;;;;;;5061795;28;20883;-77
2021/04/23 02:30:47;;;;;;;9.50;8.60;;;2.60;99.90;;;;;;5061709;28;20448;-77
2021/04/23 02:33:16;;;;;;;9.77;8.83;;;2.50;99.90;;;;;;5058504;28;20441;-77
2021/04/23 02:35:43;;;;;;;9.40;8.60;;;2.40;99.90;;;;;;5046777;28;20458;-76
2021/04/23 02:38:10;;;;;;;8.60;7.90;;;2.30;99.90;;;;;;5065051;28;20465;-78
2021/04/23 02:40:37;;;;;;;9.60;8.70;;;2.20;99.90;;;;;;5057457;28;20434;-78
2021/04/23 02:43:06;;;;;;;8.80;8.00;;;2.20;99.90;;;;;;5063641;28;20522;-79
2021/04/23 02:45:35;;;;;;;10.00;9.17;;;2.10;99.90;;;;;;5060730;28;20481;-79
2021/04/23 02:48:04;;;;;;;8.80;8.00;;;2.10;99.90;;;;;;5058193;28;20485;-77
2021/04/23 02:50:31;;;;;;;9.83;8.93;;;2.10;99.90;;;;;;5045131;28;20434;-76
2021/04/23 02:52:58;;;;;;;9.90;8.90;;;2.10;99.90;;;;;;5047216;28;20441;-76
2021/04/23 02:55:25;;;;;;;10.23;9.23;;;2.00;99.90;;;;;;5051141;28;20462;-77
2021/04/23 02:57:58;;;;;;;9.53;8.67;;;2.00;99.90;;;;;;5042150;28;20475;-77
2021/04/23 03:00:27;;;;;;;10.17;9.13;;;2.00;99.90;;;;;;5068130;28;20461;-77
2021/04/23 03:02:54;;;;;;;11.13;9.03;;;2.00;99.90;;;;;;5048543;28;20856;-76
2021/04/23 03:05:22;;;;;;;10.70;9.70;;;2.00;99.90;;;;;;5047462;28;20827;-76
2021/04/23 03:07:52;;;;;;;10.20;9.20;;;2.00;99.90;;;;;;5053694;28;20844;-77
2021/04/23 03:10:20;;;;;;;11.67;9.50;;;2.00;99.90;;;;;;5050056;28;20989;-76
2021/04/23 03:12:46;;;;;;;9.87;8.97;;;2.10;99.90;;;;;;5038343;28;20471;-76
2021/04/23 03:15:14;;;;;;;13.20;9.43;;;2.10;99.90;;;;;;5033463;28;20458;-75
2021/04/23 03:17:41;;;;;;;11.87;10.50;;;2.10;99.90;;;;;;5035605;28;20840;-76
2021/04/23 03:20:13;;;;;;;14.37;11.43;;;2.10;99.90;;;;;;5041285;28;20819;-77
2021/04/23 03:22:40;;;;;;;13.30;10.70;;;2.20;99.90;;;;;;5051192;28;20474;-76
2021/04/23 03:25:07;;;;;;;13.97;10.57;;;2.20;99.90;;;;;;5055897;28;20522;-76
2021/04/23 03:27:33;;;;;;;17.47;11.30;;;2.20;99.90;;;;;;5054263;28;20849;-76
2021/04/23 03:30:00;;;;;;;17.27;11.37;;;2.20;99.90;;;;;;5060700;28;20494;-76
2021/04/23 03:32:27;;;;;;;12.30;10.30;;;2.20;99.90;;;;;;5050800;28;20893;-76
2021/04/23 03:34:53;;;;;;;11.40;10.27;;;2.10;99.90;;;;;;5057738;28;20445;-76
2021/04/23 03:37:20;;;;;;;10.33;9.40;;;2.10;99.90;;;;;;5049815;28;20523;-77
2021/04/23 03:39:47;;;;;;;10.93;9.67;;;2.10;99.90;;;;;;5030456;28;20427;-76
2021/04/23 03:42:14;;;;;;;13.83;11.13;;;1.90;99.90;;;;;;5029259;28;20468;-76
2021/04/23 03:44:40;;;;;;;13.70;11.17;;;2.00;99.90;;;;;;5032195;28;20951;-76
2021/04/23 03:47:06;;;;;;;18.47;12.63;;;2.00;99.90;;;;;;5035583;28;20484;-76
2021/04/23 03:49:33;;;;;;;15.17;11.80;;;2.10;99.90;;;;;;5053870;28;20772;-76
2021/04/23 03:51:59;;;;;;;18.07;13.77;;;2.10;99.90;;;;;;5050651;28;20438;-76
2021/04/23 03:54:26;;;;;;;17.20;13.03;;;2.20;99.90;;;;;;5057418;28;20432;-76
2021/04/23 03:56:53;;;;;;;21.20;13.53;;;2.10;99.90;;;;;;5060555;28;20872;-76
2021/04/23 03:59:19;;;;;;;22.10;13.83;;;2.20;99.90;;;;;;5061195;28;20430;-76
2021/04/23 04:01:45;;;;;;;18.33;13.30;;;2.10;99.90;;;;;;5051537;28;20475;-76
2021/04/23 04:04:12;;;;;;;15.50;12.87;;;2.10;99.90;;;;;;5059735;28;20442;-76
2021/04/23 04:06:38;;;;;;;20.10;12.47;;;2.10;99.90;;;;;;5058941;28;20776;-76
2021/04/23 04:09:05;;;;;;;18.60;12.23;;;2.10;99.90;;;;;;5042107;28;20449;-77
2021/04/23 04:11:31;;;;;;;16.73;12.17;;;2.00;99.90;;;;;;5039944;28;20431;-76
2021/04/23 04:13:58;;;;;;;15.80;11.80;;;2.00;99.90;;;;;;5063831;28;20590;-76
2021/04/23 04:16:24;;;;;;;25.07;14.13;;;1.90;99.90;;;;;;5063364;28;20431;-76
2021/04/23 04:18:51;;;;;;;18.93;13.10;;;1.90;99.90;;;;;;5062846;28;20477;-76
2021/04/23 04:21:18;;;;;;;21.47;14.07;;;1.90;99.90;;;;;;5056943;28;20454;-76
2021/04/23 04:23:44;;;;;;;18.47;13.23;;;1.90;99.90;;;;;;5057225;28;20508;-76
2021/04/23 04:26:10;;;;;;;25.43;14.47;;;1.80;99.90;;;;;;5060941;28;20433;-76
2021/04/23 04:28:37;;;;;;;21.73;13.80;;;1.90;99.90;;;;;;5060636;28;20450;-75
2021/04/23 04:31:04;;;;;;;15.80;12.90;;;2.00;99.90;;;;;;5065905;28;20438;-76
2021/04/23 04:33:30;;;;;;;19.30;12.60;;;2.00;99.90;;;;;;5065205;28;20429;-76
2021/04/23 04:35:57;;;;;;;14.67;11.50;;;2.00;99.90;;;;;;5065216;28;20437;-75
2021/04/23 04:38:23;;;;;;;15.83;10.80;;;2.10;99.90;;;;;;5065444;28;20518;-74
2021/04/23 04:40:50;;;;;;;14.20;10.80;;;2.10;99.90;;;;;;5063476;28;20465;-75
2021/04/23 04:43:18;;;;;;;13.40;10.37;;;2.20;99.90;;;;;;5064288;28;20528;-75
2021/04/23 04:45:45;;;;;;;15.10;11.00;;;2.20;99.90;;;;;;5063756;28;20438;-75
2021/04/23 04:48:13;;;;;;;18.23;12.00;;;2.20;99.90;;;;;;5064997;28;20468;-75
2021/04/23 04:50:42;;;;;;;12.43;11.13;;;2.10;99.90;;;;;;5064249;28;20433;-78
2021/04/23 04:53:09;;;;;;;16.43;11.37;;;2.20;99.90;;;;;;5065371;28;20428;-75
2021/04/23 04:55:39;;;;;;;12.60;10.80;;;2.20;99.90;;;;;;5063720;28;20460;-75
2021/04/23 04:58:07;;;;;;;12.80;11.57;;;2.20;99.90;;;;;;5055222;28;20465;-75
2021/04/23 05:00:34;;;;;;;11.73;10.63;;;2.20;99.90;;;;;;5065293;28;20438;-75
2021/04/23 05:03:01;;;;;;;16.13;11.00;;;2.30;99.90;;;;;;5059829;28;20477;-75
2021/04/23 05:05:29;;;;;;;12.47;10.47;;;2.50;99.90;;;;;;5065292;28;20433;-77
2021/04/23 05:07:56;;;;;;;12.80;10.07;;;2.70;99.90;;;;;;5063792;28;20841;-75
2021/04/23 05:10:22;;;;;;;12.03;9.57;;;3.20;99.90;;;;;;5061617;28;20445;-75
2021/04/23 05:12:48;;;;;;;11.23;9.27;;;3.70;99.90;;;;;;5063142;28;20434;-75
2021/04/23 05:15:17;;;;;;;10.07;9.00;;;4.10;99.90;;;;;;5067586;28;20808;-76
2021/04/23 05:17:44;;;;;;;13.63;5.87;;;4.50;99.90;;;;;;5058572;28;20503;-77
2021/04/23 05:20:13;;;;;;;10.40;5.87;;;4.80;99.90;;;;;;5064221;28;20470;-76
2021/04/23 05:22:40;;;;;;;14.67;5.57;;;4.80;99.90;;;;;;5060263;28;20531;-75
2021/04/23 05:25:10;;;;;;;9.30;5.43;;;4.80;99.90;;;;;;5068547;28;20426;-75
2021/04/23 05:27:36;;;;;;;9.63;8.53;;;5.10;99.90;;;;;;5060956;28;20469;-76
2021/04/23 05:30:04;;;;;;;9.60;7.83;;;5.50;99.90;;;;;;5054972;28;20203;-76
2021/04/23 05:32:30;;;;;;;8.27;7.47;;;5.90;99.90;;;;;;5039701;28;20184;-76
2021/04/23 05:34:57;;;;;;;14.80;6.30;;;6.40;99.90;;;;;;5068232;28;20627;-76
2021/04/23 05:37:23;;;;;;;9.40;8.50;;;6.70;99.90;;;;;;5060972;28;20227;-75
2021/04/23 05:39:50;;;;;;;9.37;8.47;;;6.90;99.90;;;;;;5062474;28;20195;-76
2021/04/23 05:42:17;;;;;;;9.63;8.70;;;7.10;99.90;;;;;;5065149;28;20208;-76
2021/04/23 05:44:44;;;;;;;9.80;8.90;;;7.20;99.90;;;;;;5062281;28;20209;-77
2021/04/23 05:47:12;;;;;;;9.70;8.80;;;7.20;99.90;;;;;;5063534;28;20225;-76
2021/04/23 05:49:38;;;;;;;9.53;8.57;;;7.10;99.90;;;;;;5059494;28;20203;-76
2021/04/23 05:52:06;;;;;;;9.67;8.53;;;7.20;99.90;;;;;;5068014;28;20215;-76
2021/04/23 05:54:33;;;;;;;9.03;8.17;;;7.20;99.90;;;;;;5056041;28;20192;-77
2021/04/23 05:57:01;;;;;;;7.93;6.20;;;7.30;99.90;;;;;;5061557;28;20219;-76
2021/04/23 05:59:28;;;;;;;7.37;6.60;;;7.50;99.90;;;;;;5057849;28;20614;-76
2021/04/23 06:01:54;;;;;;;10.27;8.80;;;7.50;99.90;;;;;;5054160;28;20214;-76
2021/04/23 06:04:20;;;;;;;9.53;8.63;;;7.40;99.90;;;;;;5053638;28;20251;-74
2021/04/23 06:06:47;;;;;;;8.97;8.17;;;7.50;99.90;;;;;;5067206;28;20205;-76
2021/04/23 06:09:13;;;;;;;9.27;8.47;;;7.60;99.90;;;;;;5060370;28;20675;-76
2021/04/23 06:11:40;;;;;;;8.70;7.90;;;7.70;99.90;;;;;;5068405;28;20212;-75
2021/04/23 06:14:07;;;;;;;9.20;8.23;;;7.90;99.90;;;;;;5060481;28;20198;-76
2021/04/23 06:16:34;;;;;;;9.17;8.30;;;8.00;99.90;;;;;;5060776;28;20198;-77
2021/04/23 06:19:01;;;;;;;9.00;8.20;;;8.20;99.90;;;;;;5063296;28;20206;-73
2021/04/23 06:21:27;;;;;;;10.37;8.93;;;8.40;99.90;;;;;;5065237;28;20228;-77
2021/04/23 06:23:53;;;;;;;9.17;7.87;;;8.60;99.90;;;;;;5060243;28;20600;-77
2021/04/23 06:26:20;;;;;;;8.97;8.20;;;8.80;99.90;;;;;;5060496;28;20210;-77
2021/04/23 06:28:47;;;;;;;9.50;8.13;;;8.90;99.90;;;;;;5058038;28;20215;-76
2021/04/23 06:31:15;;;;;;;8.93;7.47;;;9.00;99.90;;;;;;5063653;28;20205;-76
2021/04/23 06:33:46;;;;;;;10.00;8.23;;;9.00;99.90;;;;;;5062333;28;20243;-77
2021/04/23 06:36:13;;;;;;;9.13;8.23;;;9.20;99.90;;;;;;5062282;28;20285;-76
2021/04/23 06:38:39;;;;;;;8.67;7.77;;;9.30;99.90;;;;;;5061295;28;20225;-76
2021/04/23 06:41:06;;;;;;;6.93;6.27;;;9.30;99.90;;;;;;5061938;28;20198;-76
2021/04/23 06:43:32;;;;;;;8.10;7.40;;;9.40;99.90;;;;;;5063425;28;20214;-77
2021/04/23 06:45:59;;;;;;;10.00;7.20;;;9.50;99.90;;;;;;5061242;28;20568;-77
2021/04/23 06:48:26;;;;;;;9.43;8.43;;;9.60;99.90;;;;;;5061753;28;20221;-76
2021/04/23 06:50:53;;;;;;;9.53;8.33;;;9.70;99.90;;;;;;5060681;28;20199;-77
2021/04/23 06:53:20;;;;;;;9.47;8.50;;;9.80;99.90;;;;;;5062040;28;20225;-76
2021/04/23 06:55:46;;;;;;;9.77;8.90;;;9.80;99.90;;;;;;5062829;28;20247;-77
2021/04/23 06:58:13;;;;;;;8.40;7.60;;;9.60;99.90;;;;;;5063183;28;20214;-76
2021/04/23 07:00:42;;;;;;;8.87;8.03;;;9.80;99.90;;;;;;5062603;28;20202;-77
2021/04/23 07:03:11;;;;;;;9.23;8.20;;;10.00;99.90;;;;;;5054948;28;20621;-76
2021/04/23 07:05:39;;;;;;;9.40;8.40;;;10.10;99.90;;;;;;5061663;28;20289;-77
2021/04/23 07:08:06;;;;;;;8.70;7.77;;;10.30;99.90;;;;;;5062158;28;20280;-76
2021/04/23 07:10:32;;;;;;;8.63;7.93;;;10.30;99.90;;;;;;5061950;28;20198;-77
2021/04/23 07:12:59;;;;;;;13.57;8.00;;;10.30;99.90;;;;;;5058621;28;20608;-76
2021/04/23 07:15:27;;;;;;;10.20;9.13;;;10.30;99.90;;;;;;5060169;28;20662;-77
2021/04/23 07:17:54;;;;;;;8.43;7.50;;;10.40;99.90;;;;;;5061241;28;20252;-76
2021/04/23 07:20:21;;;;;;;8.90;8.00;;;10.60;99.90;;;;;;5064776;28;20687;-77
2021/04/23 07:22:49;;;;;;;9.30;7.67;;;11.00;99.90;;;;;;5059317;28;20254;-77
2021/04/23 07:25:16;;;;;;;9.40;6.73;;;11.30;99.90;;;;;;5060982;28;20579;-77
2021/04/23 07:27:43;;;;;;;15.87;7.80;;;11.50;99.90;;;;;;5059983;28;20630;-76
2021/04/23 07:30:14;;;;;;;8.07;6.57;;;11.50;99.90;;;;;;5060407;28;20572;-77
2021/04/23 07:32:40;;;;;;;10.70;7.43;;;11.90;99.90;;;;;;5064283;28;20197;-77
2021/04/23 07:35:08;;;;;;;7.83;7.03;;;12.40;99.90;;;;;;5058119;28;20319;-77
2021/04/23 07:37:35;;;;;;;8.83;7.10;;;12.80;99.90;;;;;;5058223;28;20593;-76
2021/04/23 07:40:03;;;;;;;10.40;9.10;;;13.50;99.40;;;;;;5056946;28;20682;-76
2021/04/23 07:42:30;;;;;;;9.50;8.50;;;13.70;98.10;;;;;;5062262;28;20225;-77
2021/04/23 07:44:56;;;;;;;10.77;9.30;;;13.80;97.30;;;;;;5064933;28;20198;-77
2021/04/23 07:47:23;;;;;;;9.60;8.60;;;13.90;97.30;;;;;;5067211;28;20229;-77
2021/04/23 07:49:49;;;;;;;12.33;8.60;;;14.20;96.00;;;;;;5063124;28;20210;-78
2021/04/23 07:52:15;;;;;;;11.30;9.20;;;14.30;96.50;;;;;;5064759;28;20194;-77
2021/04/23 07:54:42;;;;;;;10.13;8.70;;;14.40;95.50;;;;;;5065259;28;20229;-77
2021/04/23 07:57:10;;;;;;;11.60;9.40;;;14.50;96.40;;;;;;5058879;28;20227;-77
2021/04/23 07:59:37;;;;;;;10.77;9.57;;;14.60;96.30;;;;;;5065577;28;20213;-77
2021/04/23 08:02:04;;;;;;;10.70;9.33;;;14.90;95.00;;;;;;5061282;28;20225;-77
2021/04/23 08:04:31;;;;;;;10.67;9.20;;;14.90;94.50;;;;;;5055327;28;20330;-77
2021/04/23 08:06:57;;;;;;;11.40;9.03;;;15.10;94.80;;;;;;5065453;28;20234;-77
2021/04/23 08:09:24;;;;;;;9.57;8.63;;;15.30;95.00;;;;;;5064595;28;20206;-77
2021/04/23 08:11:50;;;;;;;10.43;9.23;;;15.50;94.50;;;;;;5066667;28;20188;-77
2021/04/23 08:14:17;;;;;;;11.97;9.20;;;15.50;95.00;;;;;;5066437;28;20208;-77
2021/04/23 08:16:43;;;;;;;11.17;9.57;;;15.60;94.90;;;;;;5067880;28;20230;-77
2021/04/23 08:19:10;;;;;;;9.50;8.60;;;15.60;95.60;;;;;;5061148;28;20619;-77
2021/04/23 08:21:36;;;;;;;9.90;8.87;;;15.90;94.60;;;;;;5052760;28;20227;-78
2021/04/23 08:24:03;;;;;;;10.13;9.20;;;15.70;93.20;;;;;;5068410;28;20575;-77
2021/04/23 08:26:29;;;;;;;9.70;8.67;;;15.50;92.90;;;;;;5064983;28;20202;-77
2021/04/23 08:28:56;;;;;;;10.23;8.80;;;16.00;92.70;;;;;;5066897;28;20225;-78
2021/04/23 08:31:23;;;;;;;8.50;7.80;;;16.20;91.80;;;;;;5066479;28;20195;-77
2021/04/23 08:33:50;;;;;;;9.40;8.47;;;16.20;91.80;;;;;;5067122;28;20322;-77
2021/04/23 08:36:16;;;;;;;14.63;9.13;;;16.20;92.40;;;;;;5065122;28;20205;-77
2021/04/23 08:38:42;;;;;;;11.03;9.40;;;16.40;91.60;;;;;;5062704;28;20726;-77
2021/04/23 08:41:09;;;;;;;10.97;8.27;;;16.30;88.90;;;;;;5064930;28;20207;-75
2021/04/23 08:43:36;;;;;;;11.80;9.33;;;16.40;91.30;;;;;;5063278;28;20219;-75
2021/04/23 08:46:03;;;;;;;8.90;8.00;;;16.60;90.40;;;;;;5065322;28;20189;-75
2021/04/23 08:48:30;;;;;;;8.70;7.80;;;17.00;90.50;;;;;;5090908;22;20613;-78
2021/04/23 08:50:57;;;;;;;11.13;9.43;;;17.00;88.50;;;;;;5067168;28;20571;-78
2021/04/23 08:53:26;;;;;;;10.80;8.70;;;16.90;88.30;;;;;;5068009;28;20668;-78
2021/04/23 08:55:53;;;;;;;9.10;8.20;;;16.80;90.90;;;;;;5065472;28;20204;-78
2021/04/23 08:58:20;;;;;;;12.90;8.47;;;16.90;88.40;;;;;;5065836;28;20299;-78
2021/04/23 09:00:47;;;;;;;10.37;8.63;;;17.00;88.20;;;;;;5068131;28;20199;-78
2021/04/23 09:03:16;;;;;;;13.17;8.30;;;17.20;89.10;;;;;;5067777;28;20218;-77
2021/04/23 09:05:43;;;;;;;11.60;8.17;;;17.60;86.50;;;;;;5068231;28;20208;-78
2021/04/23 09:08:13;;;;;;;12.37;8.70;;;17.30;85.70;;;;;;5059951;28;20220;-78
2021/04/23 09:10:41;;;;;;;9.80;7.90;;;16.70;81.80;;;;;;5065126;28;20208;-78
2021/04/23 09:13:10;;;;;;;12.57;8.33;;;16.90;85.00;;;;;;5071037;28;20189;-78
2021/04/23 09:15:37;;;;;;;9.57;8.57;;;17.20;84.80;;;;;;5057493;28;20211;-77
2021/04/23 09:18:06;;;;;;;8.43;7.60;;;17.70;88.90;;;;;;5057957;28;20224;-78
2021/04/23 09:20:32;;;;;;;11.13;8.30;;;17.80;83.60;;;;;;5065230;28;20201;-78
2021/04/23 09:23:10;;;;;;;9.67;8.67;;;17.90;80.40;;;;;;5069755;28;20221;-78
2021/04/23 09:25:43;;;;;;;9.53;8.20;;;17.70;82.40;;;;;;5065784;28;20196;-77
2021/04/23 09:28:10;;;;;;;10.37;8.00;;;17.80;82.50;;;;;;5063521;28;20221;-77
2021/04/23 09:30:36;;;;;;;13.70;8.70;;;17.70;82.80;;;;;;5063122;28;20212;-77
2021/04/23 09:33:03;;;;;;;11.20;8.63;;;17.50;83.10;;;;;;5055377;28;20208;-78
2021/04/23 09:35:35;;;;;;;11.60;8.83;;;17.60;82.70;;;;;;5065237;28;20200;-78
2021/04/23 09:38:02;;;;;;;10.73;7.97;;;17.60;81.80;;;;;;5068308;28;20234;-77
2021/04/23 09:40:32;;;;;;;11.03;7.50;;;17.60;81.40;;;;;;5066985;28;20206;-77
2021/04/23 09:43:00;;;;;;;10.77;8.07;;;17.90;83.40;;;;;;5065407;28;20601;-77
2021/04/23 09:45:29;;;;;;;9.50;8.10;;;18.40;78.60;;;;;;5066910;28;20554;-78
2021/04/23 09:47:56;;;;;;;9.67;7.80;;;18.30;79.30;;;;;;5062764;28;20255;-78
2021/04/23 09:50:29;;;;;;;8.77;7.67;;;18.40;80.60;;;;;;5066003;28;20200;-78
2021/04/23 09:52:58;;;;;;;10.20;8.67;;;18.60;78.80;;;;;;5062799;28;20193;-78
2021/04/23 09:55:27;;;;;;;8.83;7.83;;;18.60;78.60;;;;;;5062411;28;20207;-77
2021/04/23 09:57:56;;;;;;;11.23;8.10;;;18.70;78.90;;;;;;5065769;28;20313;-78
2021/04/23 10:00:25;;;;;;;9.43;8.20;;;18.70;78.30;;;;;;5063962;28;20206;-78
2021/04/23 10:02:54;;;;;;;11.13;8.07;;;18.30;79.40;;;;;;5064716;28;20225;-79
2021/04/23 10:05:32;;;;;;;9.17;8.20;;;17.80;76.20;;;;;;5062794;28;20284;-78
2021/04/23 10:07:59;;;;;;;11.63;7.90;;;17.60;77.80;;;;;;5065547;28;20284;-78
2021/04/23 10:10:26;;;;;;;10.53;8.17;;;17.60;78.10;;;;;;5060497;28;20214;-78
2021/04/23 10:12:54;;;;;;;11.57;8.30;;;17.70;76.90;;;;;;5063225;28;20184;-78
2021/04/23 10:15:23;;;;;;;9.23;8.20;;;17.30;77.00;;;;;;5065501;28;20197;-77
2021/04/23 10:17:51;;;;;;;9.60;8.60;;;17.10;76.10;;;;;;5065185;28;20574;-79
2021/04/23 10:20:20;;;;;;;12.30;8.20;;;16.90;77.30;;;;;;5057813;28;20201;-78
2021/04/23 10:22:46;;;;;;;10.70;7.80;;;16.90;80.20;;;;;;5060743;28;20220;-77
2021/04/23 10:25:14;;;;;;;10.37;7.10;;;17.10;81.30;;;;;;5067944;28;20197;-79
2021/04/23 10:27:42;;;;;;;13.77;6.53;;;16.70;77.20;;;;;;5064947;28;20214;-78
2021/04/23 10:30:12;;;;;;;7.60;6.30;;;16.30;76.20;;;;;;5062616;28;20267;-78
2021/04/23 10:32:39;;;;;;;9.37;5.63;;;16.20;79.30;;;;;;5069156;28;20199;-78
2021/04/23 10:35:07;;;;;;;16.43;6.50;;;16.30;82.00;;;;;;5062009;28;20284;-79
2021/04/23 10:37:33;;;;;;;9.53;5.73;;;16.20;79.40;;;;;;5061021;28;20244;-79
2021/04/23 10:40:00;;;;;;;9.27;8.00;;;15.80;78.70;;;;;;5064808;28;20246;-78
2021/04/23 10:42:49;;;;;;;10.30;8.43;;;15.90;80.10;;;;;;5065003;28;20226;-79
2021/04/23 10:45:28;;;;;;;12.83;10.23;;;15.70;78.40;;;;;;5058168;28;20231;-77
2021/04/23 10:47:56;;;;;;;11.13;6.33;;;15.50;78.90;;;;;;5065634;28;20264;-78
2021/04/23 10:50:25;;;;;;;7.67;5.33;;;15.60;81.50;;;;;;5064344;28;20195;-77
2021/04/23 10:53:04;;;;;;;9.33;8.43;;;15.70;79.70;;;;;;5068600;28;20191;-77
2021/04/23 10:55:39;;;;;;;15.10;7.93;;;15.80;81.20;;;;;;5061013;28;20199;-79
2021/04/23 10:58:06;;;;;;;9.97;6.03;;;15.70;80.20;;;;;;5047728;28;20251;-78
2021/04/23 11:00:37;;;;;;;12.73;6.97;;;15.70;77.60;;;;;;5059905;28;20207;-77
2021/04/23 11:03:27;;;;;;;11.40;5.97;;;15.50;76.50;;;;;;5057071;28;20207;-77
2021/04/23 11:05:55;;;;;;;10.67;8.83;;;15.70;78.40;;;;;;5065170;28;20195;-76
2021/04/23 11:08:22;;;;;;;8.87;7.97;;;15.70;77.00;;;;;;5063498;28;20691;-76
2021/04/23 11:11:12;;;;;;;9.47;7.90;;;15.50;76.00;;;;;;5063448;28;20198;-76
2021/04/23 11:13:39;;;;;;;8.63;7.70;;;15.30;77.50;;;;;;5057126;28;20203;-76
2021/04/23 11:16:34;;;;;;;8.80;5.77;;;15.50;79.70;;;;;;5066390;28;20252;-79
2021/04/23 11:19:32;;;;;;;7.47;6.63;;;15.50;76.50;;;;;;5070624;28;20219;-78
2021/04/23 11:22:08;;;;;;;8.93;6.83;;;15.50;78.10;;;;;;5069401;28;20228;-76
2021/04/23 11:24:35;;;;;;;9.57;5.83;;;15.50;77.40;;;;;;5068085;28;20208;-76
2021/04/23 11:27:11;;;;;;;8.50;7.60;;;15.40;75.70;;;;;;5067590;28;20671;-79
2021/04/23 11:30:02;;;;;;;11.77;8.00;;;15.20;75.20;;;;;;5069717;28;20202;-79
2021/04/23 11:32:32;;;;;;;8.20;7.40;;;15.20;74.20;;;;;;5064838;28;20194;-79
2021/04/23 11:35:00;;;;;;;11.83;7.30;;;15.10;73.90;;;;;;5064507;28;20205;-78
2021/04/23 11:37:28;;;;;;;9.43;6.97;;;15.10;74.80;;;;;;5059326;28;20226;-78
2021/04/23 11:39:56;;;;;;;8.70;7.17;;;15.10;72.40;;;;;;5066043;28;20206;-79
2021/04/23 11:42:23;;;;;;;12.10;7.30;;;15.20;74.80;;;;;;5066484;28;20218;-78
2021/04/23 11:44:55;;;;;;;10.47;7.73;;;15.10;72.30;;;;;;5068127;28;20582;-78
2021/04/23 11:47:35;;;;;;;8.33;7.17;;;15.10;74.90;;;;;;5069145;28;20229;-79
2021/04/23 11:50:05;;;;;;;8.47;6.80;;;15.40;74.30;;;;;;5070502;28;20199;-78
2021/04/23 11:52:33;;;;;;;7.40;6.70;;;15.40;67.80;;;;;;5069150;28;20475;-78
2021/04/23 11:55:05;;;;;;;7.43;6.83;;;15.40;70.50;;;;;;5064478;28;20202;-78
2021/04/23 11:57:31;;;;;;;9.33;7.20;;;15.30;71.70;;;;;;5066006;28;20227;-78
2021/04/23 12:00:06;;;;;;;8.37;7.57;;;15.30;73.40;;;;;;5068004;28;20574;-79
2021/04/23 12:02:43;;;;;;;10.13;7.30;;;15.30;74.80;;;;;;5067457;28;20207;-78
2021/04/23 12:05:21;;;;;;;9.67;8.00;;;15.40;76.10;;;;;;5060439;28;20198;-79
2021/04/23 12:07:47;;;;;;;10.37;7.30;;;15.50;74.20;;;;;;5068617;28;20271;-78
2021/04/23 12:10:15;;;;;;;11.13;8.00;;;15.40;70.30;;;;;;5064128;28;20673;-79
2021/04/23 12:12:43;;;;;;;8.23;7.40;;;15.20;70.00;;;;;;5068707;28;20205;-78
2021/04/23 12:15:19;;;;;;;9.37;7.83;;;15.20;71.40;;;;;;5071777;28;20694;-78
2021/04/23 12:17:46;;;;;;;8.17;7.27;;;15.20;72.20;;;;;;5057034;28;20219;-80
2021/04/23 12:20:16;;;;;;;11.90;8.77;;;15.20;70.20;;;;;;5062742;28;20203;-79
2021/04/23 12:22:43;;;;;;;11.87;8.47;;;15.10;74.30;;;;;;5063487;28;20241;-79
2021/04/23 12:25:30;;;;;;;10.03;8.03;;;15.20;76.90;;;;;;5067996;28;20187;-78
2021/04/23 12:28:25;;;;;;;13.30;7.90;;;15.30;78.40;;;;;;5069532;28;20520;-78
2021/04/23 12:30:54;;;;;;;7.90;7.13;;;15.30;74.40;;;;;;5068154;28;20196;-79
2021/04/23 12:33:22;;;;;;;8.83;7.40;;;15.20;71.50;;;;;;5071357;28;20714;-78
2021/04/23 12:35:51;;;;;;;7.97;7.20;;;15.10;67.10;;;;;;5062801;28;20196;-77
2021/04/23 12:38:36;;;;;;;8.80;7.90;;;15.20;69.40;;;;;;5065291;28;20298;-79
2021/04/23 12:41:14;;;;;;;8.93;7.97;;;15.20;69.90;;;;;;5070156;28;20190;-77
2021/04/23 12:43:41;;;;;;;11.73;8.20;;;15.30;73.10;;;;;;5060975;28;20301;-80
2021/04/23 12:46:18;;;;;;;8.63;7.83;;;15.30;75.00;;;;;;5068462;28;20213;-79
2021/04/23 12:48:54;;;;;;;9.70;8.27;;;15.50;76.00;;;;;;5067366;28;20227;-78
2021/04/23 12:51:21;;;;;;;8.47;7.67;;;15.50;73.40;;;;;;5073394;28;20196;-79
2021/04/23 12:53:49;;;;;;;11.60;8.53;;;15.50;73.70;;;;;;5061729;28;20602;-80